Time;durP1;ratioP1;P1;durP2;ratioP2;P2;SDS_P1;SDS_P2;PMS_P1;PMS_P2;Temp;Humidity;BMP_temperature;BMP_pressure;BME280_temperature;BME280_humidity;BME280_pressure;Samples;Min_cycle;Max_cycle;Signal;HPM_P1;HPM_P2
2023/10/12 00:01:57;;;;;;;9.57;2.15;;;13.70;99.90;;;;;;5020970;28;20124;-63
2023/10/12 00:04:38;;;;;;;8.90;2.05;;;13.60;99.90;;;;;;5017648;28;20056;-63
2023/10/12 00:07:15;;;;;;;11.60;2.22;;;13.60;99.90;;;;;;5030618;28;20087;-63
2023/10/12 00:10:01;;;;;;;15.52;2.97;;;13.60;99.90;;;;;;5015640;28;20586;-63
2023/10/12 00:12:29;;;;;;;10.35;2.30;;;13.60;99.90;;;;;;5021752;28;20043;-63
2023/10/12 00:14:55;;;;;;;15.20;2.55;;;13.60;99.90;;;;;;5019543;28;20116;-63
2023/10/12 00:17:23;;;;;;;10.63;2.13;;;13.60;99.90;;;;;;5019061;28;20403;-63
2023/10/12 00:19:52;;;;;;;10.70;2.20;;;13.60;99.90;;;;;;5035606;28;20053;-63
2023/10/12 00:22:19;;;;;;;14.13;2.45;;;13.60;99.90;;;;;;5031620;28;20487;-63
2023/10/12 00:24:44;;;;;;;13.00;2.15;;;13.60;99.90;;;;;;5035920;28;20523;-63
2023/10/12 00:27:15;;;;;;;11.43;2.53;;;13.60;99.90;;;;;;5017183;28;20037;-63
2023/10/12 00:29:45;;;;;;;10.82;2.25;;;13.60;99.90;;;;;;5034596;28;20041;-63
2023/10/12 00:32:12;;;;;;;14.05;2.50;;;13.60;99.90;;;;;;5020570;28;20045;-63
2023/10/12 00:34:45;;;;;;;14.98;2.40;;;13.60;99.90;;;;;;5017636;28;21994;-63
2023/10/12 00:37:12;;;;;;;11.48;2.17;;;13.60;99.90;;;;;;5033092;28;20091;-63
2023/10/12 00:39:58;;;;;;;18.65;2.60;;;13.60;99.90;;;;;;5011176;28;20541;-63
2023/10/12 00:42:33;;;;;;;14.23;2.45;;;13.60;99.90;;;;;;5006975;28;20041;-63
2023/10/12 00:45:10;;;;;;;12.68;2.65;;;13.60;99.90;;;;;;5023498;28;20049;-62
2023/10/12 00:47:48;;;;;;;13.15;2.45;;;13.60;99.90;;;;;;5016069;28;20048;-63
2023/10/12 00:50:16;;;;;;;11.68;2.67;;;13.60;99.90;;;;;;5029048;28;20072;-63
2023/10/12 00:52:55;;;;;;;13.57;2.55;;;13.50;99.90;;;;;;5009046;28;20047;-63
2023/10/12 00:55:34;;;;;;;10.43;2.10;;;13.60;99.90;;;;;;5008013;28;20044;-63
2023/10/12 00:58:04;;;;;;;14.02;2.60;;;13.50;99.90;;;;;;5026764;28;20041;-63
2023/10/12 01:00:35;;;;;;;11.75;2.38;;;13.50;99.90;;;;;;4992855;28;20438;-63
2023/10/12 01:03:09;;;;;;;17.52;2.83;;;13.60;99.90;;;;;;5028127;28;20047;-63
2023/10/12 01:05:35;;;;;;;14.82;2.35;;;13.50;99.90;;;;;;5025216;28;20095;-63
2023/10/12 01:08:05;;;;;;;9.52;2.50;;;13.50;99.90;;;;;;5019211;28;20490;-63
2023/10/12 01:10:32;;;;;;;12.13;2.40;;;13.50;99.90;;;;;;5015432;28;20045;-63
2023/10/12 01:13:00;;;;;;;11.48;2.40;;;13.50;99.90;;;;;;4994357;28;20040;-63
2023/10/12 01:15:31;;;;;;;11.38;1.98;;;13.50;99.90;;;;;;5029474;28;20302;-63
2023/10/12 01:17:57;;;;;;;13.07;2.30;;;13.50;99.90;;;;;;5025510;28;20430;-63
2023/10/12 01:20:26;;;;;;;13.77;2.40;;;13.50;99.90;;;;;;5020824;28;20124;-63
2023/10/12 01:22:53;;;;;;;18.40;2.70;;;13.40;99.90;;;;;;5027795;28;20526;-63
2023/10/12 01:25:31;;;;;;;10.48;2.05;;;13.40;99.90;;;;;;4997803;28;20480;-63
2023/10/12 01:28:00;;;;;;;13.85;2.10;;;13.40;99.90;;;;;;5015924;28;20132;-63
2023/10/12 01:30:27;;;;;;;8.60;1.95;;;13.30;99.90;;;;;;5015809;28;20381;-63
2023/10/12 01:32:57;;;;;;;9.32;1.90;;;13.30;99.90;;;;;;5031739;28;20120;-63
2023/10/12 01:35:32;;;;;;;9.10;1.92;;;13.30;99.90;;;;;;5033676;28;20040;-62
2023/10/12 01:38:01;;;;;;;9.57;1.70;;;13.20;99.90;;;;;;5026907;28;20040;-63
2023/10/12 01:40:40;;;;;;;11.95;2.17;;;13.20;99.90;;;;;;5016762;28;20049;-63
2023/10/12 01:43:12;;;;;;;7.65;2.00;;;13.20;99.90;;;;;;5016475;28;20044;-63
2023/10/12 01:45:41;;;;;;;8.18;2.03;;;13.10;99.90;;;;;;5035363;28;20515;-63
2023/10/12 01:48:10;;;;;;;6.70;1.63;;;13.10;99.90;;;;;;5017643;28;20045;-63
2023/10/12 01:50:39;;;;;;;9.43;1.80;;;13.10;99.90;;;;;;5035489;28;20049;-64
2023/10/12 01:53:32;;;;;;;11.13;1.83;;;13.00;99.90;;;;;;5017081;28;20048;-63
2023/10/12 01:55:59;;;;;;;11.83;2.07;;;13.00;99.90;;;;;;5035185;28;20543;-63
2023/10/12 01:58:27;;;;;;;12.73;1.83;;;13.00;99.90;;;;;;5017958;28;20408;-63
2023/10/12 02:00:55;;;;;;;9.85;2.25;;;13.00;99.90;;;;;;5033976;28;20044;-63
2023/10/12 02:03:31;;;;;;;13.15;2.28;;;12.90;99.90;;;;;;5016103;28;20127;-63
2023/10/12 02:06:13;;;;;;;17.13;1.90;;;12.90;99.90;;;;;;5037261;28;20734;-63
2023/10/12 02:08:40;;;;;;;9.73;1.80;;;12.90;99.90;;;;;;5006839;28;20036;-63
2023/10/12 02:13:50;;;;;;;10.15;1.80;;;12.90;99.90;;;;;;5039719;28;20048;-63
2023/10/12 02:16:25;;;;;;;8.60;1.70;;;12.80;99.90;;;;;;5038851;28;20044;-62
2023/10/12 02:18:53;;;;;;;8.93;1.67;;;12.80;99.90;;;;;;5035753;28;20501;-63
2023/10/12 02:21:22;;;;;;;11.70;2.60;;;12.80;99.90;;;;;;5034300;28;20049;-63
2023/10/12 02:23:57;;;;;;;12.85;1.83;;;12.80;99.90;;;;;;5035803;28;20063;-63
2023/10/12 02:26:31;;;;;;;10.43;1.70;;;12.70;99.90;;;;;;5004711;28;20525;-63
2023/10/12 02:29:11;;;;;;;6.75;1.70;;;12.70;99.90;;;;;;5029540;28;20061;-63
2023/10/12 02:34:17;;;;;;;11.35;2.00;;;12.70;99.90;;;;;;5023152;28;20174;-63
2023/10/12 02:37:44;;;;;;;7.03;1.88;;;12.70;99.90;;;;;;5039784;28;20087;-63
2023/10/12 02:39:41;;;;;;;10.73;2.53;;;12.70;99.90;;;;;;5025895;28;20071;-63
2023/10/12 02:42:45;;;;;;;9.45;2.10;;;12.70;99.90;;;;;;5041978;28;20059;-63
2023/10/12 02:47:45;;;;;;;15.07;2.83;;;12.60;99.90;;;;;;5041288;28;20048;-63
2023/10/12 02:52:39;;;;;;;10.05;1.85;;;12.60;99.90;;;;;;5031812;28;20048;-63
2023/10/12 02:57:54;;;;;;;10.63;2.22;;;12.60;99.90;;;;;;5021842;28;20044;-63
2023/10/12 03:00:44;;;;;;;10.57;2.00;;;12.60;99.90;;;;;;5013515;28;20055;-63
2023/10/12 03:03:48;;;;;;;11.35;1.90;;;12.50;99.90;;;;;;5017999;28;20104;-62
2023/10/12 03:06:12;;;;;;;13.23;1.95;;;12.50;99.90;;;;;;5031182;28;20072;-63
2023/10/12 03:11:25;;;;;;;8.13;1.90;;;12.50;99.90;;;;;;5029884;28;20041;-63
2023/10/12 03:14:00;;;;;;;13.52;2.17;;;12.50;99.90;;;;;;5012215;28;20596;-63
2023/10/12 03:16:41;;;;;;;10.20;1.70;;;12.50;99.90;;;;;;5029891;28;20491;-63
2023/10/12 03:19:28;;;;;;;13.65;1.98;;;12.40;99.90;;;;;;5013576;28;20077;-63
2023/10/12 03:21:53;;;;;;;12.80;2.17;;;12.40;99.90;;;;;;5011860;28;20058;-63
2023/10/12 03:24:33;;;;;;;11.18;2.05;;;12.40;99.90;;;;;;5035441;28;20048;-63
2023/10/12 03:29:28;;;;;;;9.95;1.73;;;12.40;99.90;;;;;;5023969;28;20707;-63
2023/10/12 03:31:57;;;;;;;7.65;2.08;;;12.40;99.90;;;;;;5027779;28;20043;-63
2023/10/12 03:34:57;;;;;;;7.85;1.70;;;12.40;99.90;;;;;;5029383;28;20033;-62
2023/10/12 03:37:15;;;;;;;13.80;2.22;;;12.40;99.90;;;;;;5010780;28;20048;-63
2023/10/12 03:53:26;;;;;;;10.48;2.13;;;12.20;99.90;;;;;;5029066;28;20037;-63
2023/10/12 03:55:58;;;;;;;21.33;2.58;;;12.20;99.90;;;;;;5029685;28;20048;-62
2023/10/12 03:58:24;;;;;;;10.63;1.90;;;12.20;99.90;;;;;;5030342;28;20094;-62
2023/10/12 04:03:40;;;;;;;13.20;2.13;;;12.10;99.90;;;;;;5033708;28;20559;-63
2023/10/12 04:06:15;;;;;;;13.98;2.40;;;12.10;99.90;;;;;;5013771;28;20076;-63
2023/10/12 04:08:59;;;;;;;10.52;2.30;;;12.10;99.90;;;;;;5013533;28;20461;-63
2023/10/12 04:14:43;;;;;;;8.32;2.05;;;12.10;99.90;;;;;;5025171;28;20045;-63
2023/10/12 04:17:09;;;;;;;6.10;2.00;;;12.10;99.90;;;;;;5014544;28;20067;-62
2023/10/12 04:19:38;;;;;;;9.38;1.90;;;12.10;99.90;;;;;;5028101;28;21400;-62
2023/10/12 04:23:15;;;;;;;7.00;1.88;;;12.00;99.90;;;;;;5028044;28;20041;-63
2023/10/12 04:24:55;;;;;;;8.65;2.00;;;12.00;99.90;;;;;;5003558;28;20055;-62
2023/10/12 04:27:38;;;;;;;8.88;2.22;;;12.00;99.90;;;;;;5009396;28;20380;-63
2023/10/12 04:30:19;;;;;;;15.75;2.58;;;12.00;99.90;;;;;;5026605;28;20130;-63
2023/10/12 04:36:01;;;;;;;8.90;1.97;;;11.90;99.90;;;;;;5028380;28;20133;-63
2023/10/12 04:39:11;;;;;;;8.88;1.77;;;11.90;99.90;;;;;;4993672;28;20059;-62
2023/10/12 04:43:53;;;;;;;11.48;1.90;;;11.90;99.90;;;;;;5011765;28;20061;-63
2023/10/12 04:48:50;;;;;;;14.20;2.33;;;11.80;99.90;;;;;;5033365;28;20457;-62
2023/10/12 04:51:19;;;;;;;14.20;2.55;;;11.80;99.90;;;;;;5031484;28;20047;-63
2023/10/12 04:53:58;;;;;;;9.45;1.90;;;11.80;99.90;;;;;;5009464;28;20032;-63
2023/10/12 04:56:26;;;;;;;12.90;2.38;;;11.80;99.90;;;;;;5022506;28;20041;-63
2023/10/12 04:59:14;;;;;;;8.77;1.90;;;11.80;99.90;;;;;;5004239;28;20040;-63
2023/10/12 05:01:41;;;;;;;13.13;2.50;;;11.80;99.90;;;;;;5025240;28;21104;-63
2023/10/12 05:04:35;;;;;;;10.48;2.30;;;11.80;99.90;;;;;;5024431;28;20041;-63
2023/10/12 05:09:51;;;;;;;10.07;2.28;;;11.70;99.90;;;;;;5008098;28;20041;-62
2023/10/12 05:12:17;;;;;;;7.57;1.92;;;11.70;99.90;;;;;;5015944;28;20083;-63
2023/10/12 05:14:43;;;;;;;9.52;2.40;;;11.70;99.90;;;;;;5004263;28;20045;-62
2023/10/12 05:17:09;;;;;;;13.20;1.90;;;11.70;99.90;;;;;;5004994;28;20099;-62
2023/10/12 05:19:35;;;;;;;9.65;2.00;;;11.70;99.90;;;;;;5005224;28;20035;-63
2023/10/12 05:22:01;;;;;;;10.40;2.20;;;11.60;99.90;;;;;;5014899;28;20119;-63
2023/10/12 05:24:27;;;;;;;11.25;2.20;;;11.60;99.90;;;;;;5002039;28;20033;-63
2023/10/12 05:27:23;;;;;;;8.35;2.13;;;11.60;99.90;;;;;;5029729;28;20067;-63
2023/10/12 05:29:52;;;;;;;13.98;2.45;;;11.50;99.90;;;;;;5018075;28;20473;-63
2023/10/12 05:32:18;;;;;;;10.15;2.35;;;11.50;99.90;;;;;;5026008;28;20057;-63
2023/10/12 05:34:46;;;;;;;9.80;1.70;;;11.50;99.90;;;;;;5009848;28;20053;-63
2023/10/12 05:39:50;;;;;;;7.88;1.98;;;11.40;99.90;;;;;;5007809;28;20163;-63
2023/10/12 05:42:20;;;;;;;11.40;2.08;;;11.40;99.90;;;;;;5005450;28;21050;-63
2023/10/12 05:44:48;;;;;;;9.77;1.92;;;11.40;99.90;;;;;;5019248;28;20103;-63
2023/10/12 05:47:17;;;;;;;9.18;2.13;;;11.30;99.90;;;;;;5030895;28;20075;-63
2023/10/12 05:49:50;;;;;;;8.40;2.00;;;11.30;99.90;;;;;;5012443;28;20029;-63
2023/10/12 05:52:17;;;;;;;7.35;1.83;;;11.20;99.90;;;;;;5016364;28;20487;-63
2023/10/12 05:54:43;;;;;;;8.13;1.77;;;11.20;99.90;;;;;;5014837;28;20429;-63
2023/10/12 05:57:30;;;;;;;8.88;2.20;;;11.20;99.90;;;;;;5021058;28;20044;-63
2023/10/12 05:59:58;;;;;;;10.73;2.13;;;11.10;99.90;;;;;;5008866;28;20053;-63
2023/10/12 06:02:28;;;;;;;5.50;1.52;;;11.00;99.90;;;;;;5008436;28;20041;-62
2023/10/12 06:04:54;;;;;;;9.07;1.98;;;11.00;99.90;;;;;;5027241;28;20071;-63
2023/10/12 06:07:20;;;;;;;11.93;2.38;;;11.00;99.90;;;;;;5011637;28;20072;-63
2023/10/12 06:09:49;;;;;;;6.90;1.80;;;10.90;99.90;;;;;;5035270;28;20044;-63
2023/10/12 06:12:21;;;;;;;8.52;2.13;;;10.80;99.90;;;;;;5011354;28;20076;-63
2023/10/12 06:14:53;;;;;;;9.52;1.95;;;10.80;99.90;;;;;;5009944;28;20041;-63
2023/10/12 06:17:30;;;;;;;13.88;2.45;;;10.80;99.90;;;;;;4994256;28;20065;-63
2023/10/12 06:20:10;;;;;;;8.52;2.50;;;10.80;99.90;;;;;;5023897;28;20049;-63
2023/10/12 06:22:36;;;;;;;6.47;2.00;;;10.70;99.90;;;;;;5004743;28;20450;-63
2023/10/12 06:25:08;;;;;;;8.63;2.45;;;10.80;99.90;;;;;;5005861;28;20041;-62
2023/10/12 06:27:33;;;;;;;10.48;1.98;;;10.70;99.90;;;;;;5009086;28;20554;-62
2023/10/12 06:30:16;;;;;;;5.07;1.95;;;10.70;99.90;;;;;;4991524;28;20147;-63
2023/10/12 06:32:46;;;;;;;8.10;2.13;;;10.70;99.90;;;;;;5034032;28;20048;-63
2023/10/12 06:35:13;;;;;;;10.70;1.70;;;10.70;99.90;;;;;;5015892;28;20043;-63
2023/10/12 06:45:47;;;;;;;12.13;2.60;;;10.70;99.90;;;;;;5017036;28;20048;-63
2023/10/12 06:51:13;;;;;;;14.82;2.40;;;10.60;99.90;;;;;;5013349;28;20053;-63
2023/10/12 06:54:06;;;;;;;9.60;2.03;;;10.70;99.90;;;;;;5025488;28;20705;-63
2023/10/12 06:56:38;;;;;;;11.38;2.33;;;10.70;99.90;;;;;;5023740;28;20114;-62
2023/10/12 07:04:15;;;;;;;9.80;2.45;;;10.70;99.90;;;;;;5028294;28;20056;-63
2023/10/12 07:06:56;;;;;;;13.00;2.60;;;10.70;99.90;;;;;;5011095;28;20049;-63
2023/10/12 07:09:50;;;;;;;9.95;2.45;;;10.70;99.90;;;;;;5008382;28;20143;-63
2023/10/12 07:12:20;;;;;;;10.88;2.40;;;10.70;99.90;;;;;;5025206;28;20577;-62
2023/10/12 07:14:47;;;;;;;12.65;2.08;;;10.80;99.90;;;;;;5003673;28;20040;-63
2023/10/12 07:17:16;;;;;;;13.15;2.20;;;10.80;99.90;;;;;;5024831;28;20732;-63
2023/10/12 07:19:47;;;;;;;10.82;2.67;;;10.80;99.90;;;;;;5029870;28;20073;-63
2023/10/12 07:22:18;;;;;;;12.13;1.88;;;10.90;99.90;;;;;;5029193;28;20127;-63
2023/10/12 07:24:44;;;;;;;6.50;2.00;;;10.90;99.90;;;;;;5006583;28;20754;-62
2023/10/12 07:27:29;;;;;;;10.45;2.50;;;11.00;99.90;;;;;;5023242;28;20053;-63
2023/10/12 07:30:14;;;;;;;5.80;1.95;;;11.10;99.90;;;;;;4997416;28;20312;-62
2023/10/12 07:32:55;;;;;;;10.00;2.47;;;11.20;99.90;;;;;;4992819;28;20045;-63
2023/10/12 07:35:34;;;;;;;5.45;1.80;;;11.20;99.90;;;;;;5009841;28;20577;-63
2023/10/12 07:38:02;;;;;;;14.50;2.28;;;11.30;99.90;;;;;;4972245;28;20045;-63
2023/10/12 07:40:36;;;;;;;7.03;2.10;;;11.40;99.90;;;;;;4994676;28;20408;-63
2023/10/12 07:43:05;;;;;;;10.00;1.65;;;11.50;99.90;;;;;;5011690;28;22341;-63
2023/10/12 07:45:47;;;;;;;11.00;1.92;;;11.60;99.90;;;;;;5012453;28;20553;-63
2023/10/12 07:49:25;;;;;;;13.45;2.22;;;11.70;99.90;;;;;;5011521;28;20041;-62
2023/10/12 07:51:15;;;;;;;7.63;1.73;;;11.80;99.90;;;;;;4983451;28;20057;-63
2023/10/12 07:53:49;;;;;;;12.88;2.00;;;11.80;99.90;;;;;;5012794;28;20045;-63
2023/10/12 07:56:18;;;;;;;13.70;1.98;;;11.90;99.90;;;;;;5014833;28;20708;-63
2023/10/12 07:58:59;;;;;;;12.38;2.10;;;12.00;99.90;;;;;;5015978;28;20041;-63
2023/10/12 08:01:38;;;;;;;13.25;2.28;;;12.00;99.90;;;;;;5019928;28;20048;-62
2023/10/12 08:04:57;;;;;;;10.52;1.80;;;12.10;99.90;;;;;;4999049;28;20037;-63
2023/10/12 08:06:56;;;;;;;8.07;1.73;;;12.10;99.90;;;;;;4985432;28;20821;-63
2023/10/12 08:11:53;;;;;;;8.05;1.80;;;12.20;99.90;;;;;;5007827;28;20073;-63
2023/10/12 08:14:41;;;;;;;7.35;1.60;;;12.30;99.90;;;;;;5000936;28;20571;-63
2023/10/12 08:19:55;;;;;;;7.15;1.80;;;12.40;99.90;;;;;;4996602;28;20045;-63
2023/10/12 08:22:29;;;;;;;10.30;2.10;;;12.50;99.90;;;;;;5018396;28;20036;-63
2023/10/12 08:24:58;;;;;;;12.43;2.03;;;12.60;99.90;;;;;;5013857;28;20049;-63
2023/10/12 08:27:39;;;;;;;9.90;1.83;;;12.60;99.90;;;;;;5009395;28;20041;-63
2023/10/12 08:30:13;;;;;;;12.77;2.30;;;12.70;99.90;;;;;;5020542;28;20057;-59
2023/10/12 08:32:55;;;;;;;8.90;2.08;;;12.80;99.90;;;;;;5027479;28;20507;-60
2023/10/12 08:36:23;;;;;;;10.63;1.90;;;12.90;99.90;;;;;;5026861;28;20052;-60
2023/10/12 08:38:33;;;;;;;6.75;1.52;;;12.90;99.90;;;;;;5035047;28;20140;-59
2023/10/12 08:43:48;;;;;;;10.73;1.92;;;13.00;99.90;;;;;;5036828;28;20044;-59
2023/10/12 08:49:27;;;;;;;14.02;2.00;;;13.10;99.90;;;;;;5033493;28;20037;-59
2023/10/12 08:52:04;;;;;;;9.10;1.80;;;13.20;99.90;;;;;;5030590;28;20496;-59
2023/10/12 08:54:38;;;;;;;16.00;2.70;;;13.20;99.90;;;;;;5027027;28;20053;-59
2023/10/12 08:57:17;;;;;;;7.28;1.75;;;13.30;99.90;;;;;;5033174;28;20036;-59
2023/10/12 08:59:57;;;;;;;9.32;2.17;;;13.30;99.90;;;;;;5029002;28;20475;-60
2023/10/12 09:02:23;;;;;;;12.40;1.75;;;13.30;99.90;;;;;;5028774;28;20066;-59
2023/10/12 09:04:49;;;;;;;14.23;2.40;;;13.40;99.90;;;;;;5031869;28;20103;-59
2023/10/12 09:07:19;;;;;;;11.75;2.20;;;13.40;99.90;;;;;;5032783;28;20958;-59
2023/10/12 09:09:49;;;;;;;7.45;2.05;;;13.50;99.90;;;;;;5028110;28;20052;-60
2023/10/12 09:12:19;;;;;;;13.05;2.17;;;13.60;99.90;;;;;;5020156;28;20049;-59
2023/10/12 09:14:45;;;;;;;7.70;2.28;;;13.60;99.90;;;;;;5024604;28;20183;-60
2023/10/12 09:17:27;;;;;;;9.60;2.17;;;13.60;99.90;;;;;;5015982;28;20052;-60
2023/10/12 09:20:09;;;;;;;10.90;2.00;;;13.80;99.90;;;;;;5029043;28;20068;-60
2023/10/12 09:22:38;;;;;;;8.83;1.70;;;13.90;99.90;;;;;;5030975;28;20049;-60
2023/10/12 09:25:05;;;;;;;8.02;2.10;;;14.10;99.90;;;;;;5009161;28;20700;-60
2023/10/12 09:27:48;;;;;;;6.85;1.70;;;14.20;99.90;;;;;;5026861;28;20492;-59
2023/10/12 09:30:18;;;;;;;7.20;1.55;;;14.30;99.90;;;;;;5026792;28;20060;-60
2023/10/12 09:32:57;;;;;;;7.13;1.52;;;14.50;99.90;;;;;;5007999;28;20059;-60
2023/10/12 09:35:33;;;;;;;11.05;1.83;;;14.60;99.90;;;;;;5024918;28;20099;-59
2023/10/12 09:38:01;;;;;;;11.60;2.35;;;14.70;99.90;;;;;;5026487;28;20052;-60
2023/10/12 09:40:35;;;;;;;10.65;2.38;;;14.80;99.90;;;;;;5029926;28;20225;-59
2023/10/12 09:43:06;;;;;;;10.40;1.80;;;14.90;99.90;;;;;;5036057;28;20048;-60
2023/10/12 09:45:41;;;;;;;9.35;1.73;;;14.90;99.90;;;;;;5035130;28;20514;-58
2023/10/12 09:48:11;;;;;;;14.07;1.73;;;14.90;99.90;;;;;;5033483;28;22260;-60
2023/10/12 09:50:40;;;;;;;8.93;1.90;;;14.90;99.90;;;;;;5033225;28;20152;-60
2023/10/12 09:53:14;;;;;;;6.53;1.55;;;15.00;99.90;;;;;;5029037;28;20663;-60
2023/10/12 09:55:54;;;;;;;9.50;1.75;;;15.10;99.90;;;;;;5014253;28;20048;-60
2023/10/12 09:58:22;;;;;;;13.02;2.10;;;15.20;99.90;;;;;;5030619;28;20044;-60
2023/10/12 10:01:15;;;;;;;14.80;2.13;;;15.30;99.90;;;;;;5026080;28;20885;-59
2023/10/12 10:03:52;;;;;;;7.30;1.77;;;15.40;99.90;;;;;;5025950;28;20039;-60
2023/10/12 10:06:37;;;;;;;9.60;1.63;;;15.60;99.90;;;;;;5008602;28;20051;-61
2023/10/12 10:09:18;;;;;;;6.90;1.65;;;15.70;99.90;;;;;;5028704;28;20050;-60
2023/10/12 10:11:46;;;;;;;9.88;2.00;;;15.80;99.90;;;;;;5031036;28;20351;-59
2023/10/12 10:14:20;;;;;;;6.57;1.45;;;15.90;99.90;;;;;;5015190;28;20053;-60
2023/10/12 10:16:47;;;;;;;12.70;1.90;;;15.90;99.90;;;;;;5033645;28;20219;-60
2023/10/12 10:19:16;;;;;;;8.98;1.60;;;15.80;99.90;;;;;;5034747;28;21222;-60
2023/10/12 10:22:04;;;;;;;8.52;1.88;;;15.80;99.90;;;;;;5031560;28;20052;-60
2023/10/12 10:24:52;;;;;;;5.68;1.27;;;16.00;99.90;;;;;;5032071;28;20036;-59
2023/10/12 10:27:18;;;;;;;12.13;1.83;;;16.20;99.90;;;;;;5009925;28;20091;-60
2023/10/12 10:29:56;;;;;;;8.75;1.92;;;16.40;99.90;;;;;;5036308;28;20965;-59
2023/10/12 10:32:45;;;;;;;9.85;1.73;;;16.60;99.90;;;;;;5036689;28;20116;-60
2023/10/12 10:35:18;;;;;;;7.03;2.22;;;16.90;99.90;;;;;;5038733;28;20037;-60
2023/10/12 10:38:04;;;;;;;7.97;1.60;;;17.10;99.90;;;;;;5037932;28;20048;-59
2023/10/12 10:40:47;;;;;;;11.20;1.73;;;17.20;99.90;;;;;;5021533;28;20051;-60
2023/10/12 10:43:16;;;;;;;8.55;1.70;;;17.40;99.90;;;;;;5041739;28;20102;-60
2023/10/12 10:45:53;;;;;;;15.43;2.13;;;17.40;99.90;;;;;;5038065;28;20045;-60
2023/10/12 10:48:19;;;;;;;10.82;2.22;;;17.40;99.90;;;;;;5037363;28;20136;-60
2023/10/12 10:50:52;;;;;;;7.28;1.30;;;17.50;99.90;;;;;;5036269;28;20025;-60
2023/10/12 10:53:18;;;;;;;11.35;2.15;;;17.60;99.90;;;;;;5038131;28;20094;-60
2023/10/12 10:55:47;;;;;;;9.45;1.80;;;17.70;99.90;;;;;;5036455;28;20111;-60
2023/10/12 10:58:14;;;;;;;8.68;1.25;;;17.90;99.90;;;;;;5038657;28;20075;-60
2023/10/12 11:00:45;;;;;;;8.30;1.63;;;17.90;99.90;;;;;;5033061;28;20048;-60
2023/10/12 11:03:17;;;;;;;11.10;1.83;;;18.00;99.90;;;;;;5029633;28;20491;-59
2023/10/12 11:05:46;;;;;;;;;;;18.10;99.90;;;;;;5034200;28;20555;-59
2023/10/12 11:08:32;;;;;;;8.20;1.80;;;18.30;99.90;;;;;;5042239;28;19931;-60
2023/10/12 11:13:39;;;;;;;7.35;1.55;;;18.10;99.90;;;;;;5043012;28;20116;-60
2023/10/12 11:16:28;;;;;;;9.60;1.40;;;18.00;99.90;;;;;;5039928;28;20124;-61
2023/10/12 11:18:55;;;;;;;7.85;1.85;;;17.80;99.90;;;;;;5035456;28;20625;-60
2023/10/12 11:21:21;;;;;;;8.73;1.60;;;17.70;99.90;;;;;;5029160;28;20644;-60
2023/10/12 11:23:50;;;;;;;6.55;1.33;;;17.60;99.90;;;;;;5016351;28;23028;-60
2023/10/12 11:26:20;;;;;;;8.70;1.48;;;17.50;99.90;;;;;;5029245;28;20612;-58
2023/10/12 11:29:04;;;;;;;7.90;1.50;;;17.30;99.90;;;;;;5035294;28;20061;-60
2023/10/12 11:31:30;;;;;;;9.25;2.25;;;17.30;99.90;;;;;;5035986;28;20132;-60
2023/10/12 11:34:06;;;;;;;8.20;1.50;;;17.20;99.90;;;;;;5019315;28;20049;-60
2023/10/12 11:36:33;;;;;;;8.23;1.90;;;17.20;99.90;;;;;;5033462;28;20107;-60
2023/10/12 11:39:04;;;;;;;10.23;2.13;;;17.10;99.90;;;;;;5029104;28;20630;-59
2023/10/12 11:41:30;;;;;;;8.25;1.50;;;17.10;99.90;;;;;;5023104;28;22047;-60
2023/10/12 11:44:05;;;;;;;14.52;1.90;;;17.10;99.90;;;;;;5025770;28;20051;-60
2023/10/12 11:46:44;;;;;;;10.25;1.92;;;17.10;99.90;;;;;;5028940;28;20044;-60
2023/10/12 11:49:13;;;;;;;11.27;1.70;;;17.10;99.90;;;;;;5031839;28;20045;-60
2023/10/12 11:51:50;;;;;;;9.27;1.52;;;17.10;99.90;;;;;;5012838;28;20045;-60
2023/10/12 11:54:32;;;;;;;5.63;1.52;;;17.10;99.90;;;;;;5033317;28;20041;-60
2023/10/12 11:56:58;;;;;;;8.40;1.83;;;17.10;99.90;;;;;;5029691;28;20045;-59
2023/10/12 11:59:31;;;;;;;6.22;1.60;;;17.20;99.90;;;;;;5030499;28;20479;-60
2023/10/12 12:01:58;;;;;;;8.73;1.92;;;17.20;99.90;;;;;;5031682;28;20108;-60
2023/10/12 12:04:41;;;;;;;9.43;1.55;;;17.20;99.90;;;;;;5031008;28;20722;-60
2023/10/12 12:07:10;;;;;;;8.45;1.35;;;17.20;99.90;;;;;;5012505;28;20123;-59
2023/10/12 12:09:48;;;;;;;11.20;1.75;;;17.20;99.90;;;;;;5028575;28;20044;-60
2023/10/12 12:12:16;;;;;;;7.50;1.55;;;17.20;99.90;;;;;;5029991;28;20487;-60
2023/10/12 12:14:49;;;;;;;9.32;1.52;;;17.00;99.90;;;;;;5030800;28;20037;-60
2023/10/12 12:17:15;;;;;;;10.27;1.85;;;17.00;99.90;;;;;;5032523;28;20484;-60
2023/10/12 12:19:41;;;;;;;8.05;1.42;;;16.90;99.90;;;;;;4996199;28;20058;-59
2023/10/12 12:22:13;;;;;;;14.43;1.60;;;16.80;99.90;;;;;;5012907;28;20049;-60
2023/10/12 12:24:44;;;;;;;7.90;1.73;;;16.70;99.90;;;;;;5028995;28;20044;-60
2023/10/12 12:27:37;;;;;;;9.45;2.40;;;16.70;99.90;;;;;;5030990;28;20045;-60
2023/10/12 12:30:08;;;;;;;14.07;1.77;;;16.70;99.90;;;;;;5014442;28;21307;-60
2023/10/12 12:32:37;;;;;;;7.45;1.20;;;16.70;99.90;;;;;;5015483;28;20049;-60
2023/10/12 12:35:06;;;;;;;11.23;1.75;;;16.70;99.90;;;;;;5013241;28;20045;-60
2023/10/12 12:37:35;;;;;;;5.85;1.50;;;16.70;99.90;;;;;;4995782;28;20041;-62
2023/10/12 12:40:46;;;;;;;9.75;1.88;;;16.70;99.90;;;;;;5012628;28;20041;-58
2023/10/12 12:42:47;;;;;;;8.70;1.52;;;16.70;99.90;;;;;;4998326;28;20459;-60
2023/10/12 12:45:14;;;;;;;8.27;1.52;;;16.70;99.90;;;;;;5015063;28;20045;-60
2023/10/12 12:47:40;;;;;;;7.40;1.73;;;16.70;99.90;;;;;;5015233;28;20045;-62
2023/10/12 12:50:06;;;;;;;9.13;1.77;;;16.60;99.90;;;;;;5025841;28;20076;-62
2023/10/12 12:52:32;;;;;;;8.75;2.10;;;16.60;99.90;;;;;;5009696;28;20432;-62
2023/10/12 12:54:57;;;;;;;7.10;1.60;;;16.60;99.90;;;;;;5028705;28;20048;-62
2023/10/12 12:57:25;;;;;;;8.50;2.00;;;16.60;99.90;;;;;;5028119;28;20156;-62
2023/10/12 12:59:50;;;;;;;10.05;1.85;;;16.50;99.90;;;;;;5015656;28;20684;-62
2023/10/12 13:02:16;;;;;;;5.57;1.38;;;16.60;99.90;;;;;;5017930;28;20045;-62
2023/10/12 13:04:42;;;;;;;15.70;1.73;;;16.50;99.90;;;;;;5014677;28;20586;-62
2023/10/12 13:07:12;;;;;;;13.10;1.70;;;16.50;99.90;;;;;;5011932;28;20037;-62
2023/10/12 13:09:40;;;;;;;11.40;1.60;;;16.50;99.90;;;;;;5003935;28;20048;-62
2023/10/12 13:12:06;;;;;;;11.07;2.05;;;16.40;99.90;;;;;;5008041;28;20041;-62
2023/10/12 13:14:32;;;;;;;4.78;1.40;;;16.50;99.90;;;;;;5009693;28;20041;-62
2023/10/12 13:16:58;;;;;;;14.98;1.92;;;16.40;99.90;;;;;;5021896;28;20056;-62
2023/10/12 13:19:24;;;;;;;8.35;1.88;;;16.40;99.90;;;;;;5007440;28;20049;-62
2023/10/12 13:21:50;;;;;;;14.27;2.08;;;16.40;99.90;;;;;;4994165;28;21102;-61
2023/10/12 13:24:16;;;;;;;9.88;2.00;;;16.50;99.90;;;;;;5008144;28;20037;-61
2023/10/12 13:26:44;;;;;;;13.52;1.95;;;16.50;99.90;;;;;;5012634;28;20520;-61
2023/10/12 13:29:13;;;;;;;8.98;1.77;;;16.50;99.90;;;;;;5011133;28;20053;-62
2023/10/12 13:31:40;;;;;;;9.07;1.45;;;16.50;99.90;;;;;;5007356;28;20067;-62
2023/10/12 13:34:06;;;;;;;6.00;1.70;;;16.40;99.90;;;;;;5011154;28;20037;-62
2023/10/12 13:36:33;;;;;;;10.88;1.80;;;16.40;99.90;;;;;;5010984;28;20597;-61
2023/10/12 13:38:59;;;;;;;11.68;1.63;;;16.40;99.90;;;;;;5011678;28;20120;-62
2023/10/12 13:41:25;;;;;;;11.07;1.73;;;16.40;99.90;;;;;;5024057;28;20072;-62
2023/10/12 13:43:51;;;;;;;10.68;1.83;;;16.30;99.90;;;;;;5010279;28;20740;-61
2023/10/12 13:46:17;;;;;;;14.60;1.73;;;16.30;99.90;;;;;;5013667;28;20075;-61
2023/10/12 13:48:47;;;;;;;4.53;1.20;;;16.20;99.90;;;;;;5013312;28;20060;-61
2023/10/12 13:51:22;;;;;;;6.90;1.58;;;16.20;99.90;;;;;;5008153;28;20211;-62
2023/10/12 13:53:50;;;;;;;8.57;1.88;;;16.20;99.90;;;;;;5010297;28;20745;-61
2023/10/12 13:56:16;;;;;;;7.13;1.35;;;16.20;99.90;;;;;;5006361;28;20124;-61
2023/10/12 13:58:46;;;;;;;7.78;1.45;;;16.10;99.90;;;;;;5005494;28;20456;-61
2023/10/12 14:01:15;;;;;;;12.93;1.92;;;16.10;99.90;;;;;;5010174;28;20038;-61
2023/10/12 14:03:45;;;;;;;8.73;1.77;;;16.10;99.90;;;;;;4991921;28;20134;-61
2023/10/12 14:06:12;;;;;;;5.63;1.42;;;16.00;99.90;;;;;;4995449;28;20405;-61
2023/10/12 14:08:42;;;;;;;7.35;1.70;;;16.00;99.90;;;;;;5002104;28;20045;-62
2023/10/12 14:11:14;;;;;;;11.98;1.75;;;15.90;99.90;;;;;;5011351;28;21114;-62
2023/10/12 14:13:39;;;;;;;11.93;1.67;;;16.00;99.90;;;;;;5027446;28;20045;-62
2023/10/12 14:16:08;;;;;;;11.52;1.60;;;16.00;99.90;;;;;;5006242;28;20356;-62
2023/10/12 14:18:34;;;;;;;6.82;1.63;;;16.00;99.90;;;;;;5005603;28;20075;-62
2023/10/12 14:20:59;;;;;;;6.57;1.60;;;16.00;99.90;;;;;;5007466;28;20034;-61
2023/10/12 14:23:29;;;;;;;7.60;1.40;;;16.00;99.90;;;;;;5007487;28;20052;-62
2023/10/12 14:25:57;;;;;;;7.43;1.70;;;16.00;99.90;;;;;;5013858;28;20068;-61
2023/10/12 14:28:24;;;;;;;6.88;1.40;;;15.90;99.90;;;;;;5010270;28;20045;-61
2023/10/12 14:30:50;;;;;;;7.93;1.83;;;15.90;99.90;;;;;;5011231;28;20118;-62
2023/10/12 14:33:20;;;;;;;10.93;2.08;;;15.90;99.90;;;;;;5016340;28;20416;-62